sensor_id;sensor_type;location;lat;lon;timestamp;pressure;altitude;pressure_sealevel;temperature;humidity
37368;BME280;23240;43.210;27.910;2022-07-29T00:01:03;101082.25;;;21.88;100.00
37368;BME280;23240;43.210;27.910;2022-07-29T00:03:28;101087.41;;;21.83;100.00
37368;BME280;23240;43.210;27.910;2022-07-29T00:05:53;101085.00;;;21.73;100.00
37368;BME280;23240;43.210;27.910;2022-07-29T00:08:19;101078.16;;;21.63;100.00
37368;BME280;23240;43.210;27.910;2022-07-29T00:10:45;101084.25;;;21.65;100.00
37368;BME280;23240;43.210;27.910;2022-07-29T00:13:10;101082.56;;;21.64;100.00
37368;BME280;23240;43.210;27.910;2022-07-29T00:15:35;101075.97;;;21.73;100.00
37368;BME280;23240;43.210;27.910;2022-07-29T00:18:01;101073.59;;;21.70;100.00
37368;BME280;23240;43.210;27.910;2022-07-29T00:20:26;101077.28;;;21.77;100.00
37368;BME280;23240;43.210;27.910;2022-07-29T00:22:51;101075.97;;;21.73;100.00
37368;BME280;23240;43.210;27.910;2022-07-29T00:25:18;101072.09;;;21.82;100.00
37368;BME280;23240;43.210;27.910;2022-07-29T00:27:43;101076.16;;;21.71;100.00
37368;BME280;23240;43.210;27.910;2022-07-29T00:30:10;101086.13;;;21.64;100.00
37368;BME280;23240;43.210;27.910;2022-07-29T00:32:36;101085.00;;;21.59;100.00
37368;BME280;23240;43.210;27.910;2022-07-29T00:35:01;101089.63;;;21.58;100.00
37368;BME280;23240;43.210;27.910;2022-07-29T00:37:45;101091.94;;;21.61;100.00
37368;BME280;23240;43.210;27.910;2022-07-29T00:40:10;101077.88;;;21.58;100.00
37368;BME280;23240;43.210;27.910;2022-07-29T00:42:43;101085.38;;;21.55;100.00
37368;BME280;23240;43.210;27.910;2022-07-29T00:45:08;101090.09;;;21.47;100.00
37368;BME280;23240;43.210;27.910;2022-07-29T00:47:34;101078.72;;;21.43;100.00
37368;BME280;23240;43.210;27.910;2022-07-29T00:49:59;101076.47;;;21.47;100.00
37368;BME280;23240;43.210;27.910;2022-07-29T00:52:24;101079.75;;;21.42;100.00
37368;BME280;23240;43.210;27.910;2022-07-29T00:54:50;101077.31;;;21.47;100.00
37368;BME280;23240;43.210;27.910;2022-07-29T00:57:15;101073.34;;;21.50;100.00
37368;BME280;23240;43.210;27.910;2022-07-29T00:59:41;101074.59;;;21.47;100.00
37368;BME280;23240;43.210;27.910;2022-07-29T01:02:06;101077.47;;;21.46;100.00
37368;BME280;23240;43.210;27.910;2022-07-29T01:04:31;101074.94;;;21.44;100.00
37368;BME280;23240;43.210;27.910;2022-07-29T01:06:57;101081.63;;;21.57;100.00
37368;BME280;23240;43.210;27.910;2022-07-29T01:09:23;101084.72;;;21.53;100.00
37368;BME280;23240;43.210;27.910;2022-07-29T01:11:48;101085.22;;;21.42;100.00
37368;BME280;23240;43.210;27.910;2022-07-29T01:14:14;101076.16;;;21.42;100.00
37368;BME280;23240;43.210;27.910;2022-07-29T01:22:11;101070.81;;;21.34;100.00
37368;BME280;23240;43.210;27.910;2022-07-29T01:24:45;101062.91;;;21.24;100.00
37368;BME280;23240;43.210;27.910;2022-07-29T01:29:41;101066.44;;;21.10;100.00
37368;BME280;23240;43.210;27.910;2022-07-29T01:32:12;101061.66;;;21.12;100.00
37368;BME280;23240;43.210;27.910;2022-07-29T01:39:36;101056.75;;;21.07;100.00
37368;BME280;23240;43.210;27.910;2022-07-29T01:44:31;101061.63;;;20.97;100.00
37368;BME280;23240;43.210;27.910;2022-07-29T01:46:58;101061.81;;;20.95;100.00
37368;BME280;23240;43.210;27.910;2022-07-29T01:49:27;101055.25;;;20.90;100.00
37368;BME280;23240;43.210;27.910;2022-07-29T01:51:54;101060.78;;;20.96;100.00
37368;BME280;23240;43.210;27.910;2022-07-29T01:54:30;101057.03;;;20.97;100.00
37368;BME280;23240;43.210;27.910;2022-07-29T01:56:57;101052.69;;;20.88;100.00
37368;BME280;23240;43.210;27.910;2022-07-29T01:59:24;101053.72;;;20.87;100.00
37368;BME280;23240;43.210;27.910;2022-07-29T02:01:50;101050.66;;;20.90;100.00
37368;BME280;23240;43.210;27.910;2022-07-29T02:04:17;101042.78;;;20.95;100.00
37368;BME280;23240;43.210;27.910;2022-07-29T02:06:43;101040.97;;;20.88;100.00
37368;BME280;23240;43.210;27.910;2022-07-29T02:09:10;101051.00;;;20.87;100.00
37368;BME280;23240;43.210;27.910;2022-07-29T02:11:37;101051.69;;;20.89;100.00
37368;BME280;23240;43.210;27.910;2022-07-29T02:14:03;101052.13;;;20.78;100.00
37368;BME280;23240;43.210;27.910;2022-07-29T02:16:29;101054.53;;;20.73;100.00
37368;BME280;23240;43.210;27.910;2022-07-29T02:18:55;101053.50;;;20.74;100.00
37368;BME280;23240;43.210;27.910;2022-07-29T02:21:23;101052.13;;;20.78;100.00
37368;BME280;23240;43.210;27.910;2022-07-29T02:23:49;101048.34;;;20.79;100.00
37368;BME280;23240;43.210;27.910;2022-07-29T02:26:15;101045.34;;;20.74;100.00
37368;BME280;23240;43.210;27.910;2022-07-29T02:28:42;101049.09;;;20.73;100.00
37368;BME280;23240;43.210;27.910;2022-07-29T02:31:07;101048.81;;;20.68;100.00
37368;BME280;23240;43.210;27.910;2022-07-29T02:33:34;101052.22;;;20.70;100.00
37368;BME280;23240;43.210;27.910;2022-07-29T02:36:00;101049.84;;;20.67;100.00
37368;BME280;23240;43.210;27.910;2022-07-29T02:38:27;101059.75;;;20.60;100.00
37368;BME280;23240;43.210;27.910;2022-07-29T02:41:13;101047.72;;;20.54;100.00
37368;BME280;23240;43.210;27.910;2022-07-29T02:43:40;101054.69;;;20.57;100.00
37368;BME280;23240;43.210;27.910;2022-07-29T02:46:11;101062.88;;;20.57;100.00
37368;BME280;23240;43.210;27.910;2022-07-29T02:48:38;101065.28;;;20.51;100.00
37368;BME280;23240;43.210;27.910;2022-07-29T02:51:13;101066.97;;;20.52;100.00
37368;BME280;23240;43.210;27.910;2022-07-29T02:53:43;101065.09;;;20.53;100.00
37368;BME280;23240;43.210;27.910;2022-07-29T02:56:13;101068.84;;;20.52;100.00
37368;BME280;23240;43.210;27.910;2022-07-29T02:58:45;101069.72;;;20.44;100.00
37368;BME280;23240;43.210;27.910;2022-07-29T03:01:14;101067.81;;;20.53;100.00
37368;BME280;23240;43.210;27.910;2022-07-29T03:03:39;101066.97;;;20.52;100.00
37368;BME280;23240;43.210;27.910;2022-07-29T03:06:07;101069.41;;;20.47;100.00
37368;BME280;23240;43.210;27.910;2022-07-29T03:08:33;101079.59;;;20.45;100.00
37368;BME280;23240;43.210;27.910;2022-07-29T03:10:59;101076.53;;;20.48;100.00
37368;BME280;23240;43.210;27.910;2022-07-29T03:13:25;101072.59;;;20.51;100.00
37368;BME280;23240;43.210;27.910;2022-07-29T03:15:52;101075.78;;;20.54;100.00
37368;BME280;23240;43.210;27.910;2022-07-29T03:18:18;101082.56;;;20.59;100.00
37368;BME280;23240;43.210;27.910;2022-07-29T03:20:44;101084.25;;;20.60;100.00
37368;BME280;23240;43.210;27.910;2022-07-29T03:23:09;101085.28;;;20.59;100.00
37368;BME280;23240;43.210;27.910;2022-07-29T03:25:35;101092.81;;;20.57;100.00
37368;BME280;23240;43.210;27.910;2022-07-29T03:28:00;101095.88;;;20.53;100.00
37368;BME280;23240;43.210;27.910;2022-07-29T03:30:25;101102.66;;;20.58;100.00
37368;BME280;23240;43.210;27.910;2022-07-29T03:32:51;101097.94;;;20.51;100.00
37368;BME280;23240;43.210;27.910;2022-07-29T03:35:16;101099.44;;;20.54;100.00
37368;BME280;23240;43.210;27.910;2022-07-29T03:37:42;101096.91;;;20.52;100.00
37368;BME280;23240;43.210;27.910;2022-07-29T03:40:08;101092.66;;;20.50;100.00
37368;BME280;23240;43.210;27.910;2022-07-29T03:42:35;101095.56;;;20.48;100.00
37368;BME280;23240;43.210;27.910;2022-07-29T03:45:03;101096.91;;;20.52;100.00
37368;BME280;23240;43.210;27.910;2022-07-29T03:47:29;101100.28;;;20.54;100.00
37368;BME280;23240;43.210;27.910;2022-07-29T03:49:57;101102.94;;;20.63;100.00
37368;BME280;23240;43.210;27.910;2022-07-29T03:52:24;101110.56;;;20.67;100.00
37368;BME280;23240;43.210;27.910;2022-07-29T03:54:50;101106.25;;;20.73;100.00
37368;BME280;23240;43.210;27.910;2022-07-29T03:57:15;101107.91;;;20.82;100.00
37368;BME280;23240;43.210;27.910;2022-07-29T03:59:41;101110.25;;;20.85;100.00
37368;BME280;23240;43.210;27.910;2022-07-29T04:02:08;101106.78;;;20.91;100.00
37368;BME280;23240;43.210;27.910;2022-07-29T04:04:34;101111.59;;;20.89;100.00
37368;BME280;23240;43.210;27.910;2022-07-29T04:07:00;101111.69;;;20.96;100.00
37368;BME280;23240;43.210;27.910;2022-07-29T04:09:25;101106.72;;;20.99;100.00
37368;BME280;23240;43.210;27.910;2022-07-29T04:11:50;101107.56;;;21.00;100.00
37368;BME280;23240;43.210;27.910;2022-07-29T04:14:16;101098.75;;;21.13;100.00
37368;BME280;23240;43.210;27.910;2022-07-29T04:16:41;101096.78;;;21.21;100.00
37368;BME280;23240;43.210;27.910;2022-07-29T04:19:06;101096.63;;;21.23;100.00
37368;BME280;23240;43.210;27.910;2022-07-29T04:21:36;101097.63;;;21.22;100.00
37368;BME280;23240;43.210;27.910;2022-07-29T04:24:02;101100.25;;;21.38;100.00
37368;BME280;23240;43.210;27.910;2022-07-29T04:26:27;101101.00;;;21.47;100.00
37368;BME280;23240;43.210;27.910;2022-07-29T04:28:52;101102.13;;;21.52;100.00
37368;BME280;23240;43.210;27.910;2022-07-29T04:31:17;101095.44;;;21.55;100.00
37368;BME280;23240;43.210;27.910;2022-07-29T04:33:43;101098.00;;;21.57;100.00
37368;BME280;23240;43.210;27.910;2022-07-29T04:36:08;101103.31;;;21.65;100.00
37368;BME280;23240;43.210;27.910;2022-07-29T04:38:36;101106.22;;;21.78;100.00
37368;BME280;23240;43.210;27.910;2022-07-29T04:41:01;101099.06;;;21.92;100.00
37368;BME280;23240;43.210;27.910;2022-07-29T04:43:26;101092.84;;;21.98;100.00
37368;BME280;23240;43.210;27.910;2022-07-29T04:45:52;101090.97;;;21.98;100.00
37368;BME280;23240;43.210;27.910;2022-07-29T04:48:17;101093.47;;;22.00;100.00
37368;BME280;23240;43.210;27.910;2022-07-29T04:50:42;101091.50;;;22.08;100.00
37368;BME280;23240;43.210;27.910;2022-07-29T04:53:09;101096.69;;;22.18;100.00
37368;BME280;23240;43.210;27.910;2022-07-29T04:55:34;101098.72;;;22.31;100.00
37368;BME280;23240;43.210;27.910;2022-07-29T04:58:01;101095.16;;;22.30;100.00
37368;BME280;23240;43.210;27.910;2022-07-29T05:00:26;101094.38;;;22.37;100.00
37368;BME280;23240;43.210;27.910;2022-07-29T05:02:51;101090.41;;;22.39;100.00
37368;BME280;23240;43.210;27.910;2022-07-29T05:05:17;101088.84;;;22.51;100.00
37368;BME280;23240;43.210;27.910;2022-07-29T05:07:42;101087.28;;;22.64;100.00
37368;BME280;23240;43.210;27.910;2022-07-29T05:10:08;101080.84;;;22.71;100.00
37368;BME280;23240;43.210;27.910;2022-07-29T05:12:36;101080.31;;;22.82;100.00
37368;BME280;23240;43.210;27.910;2022-07-29T05:15:02;101087.16;;;22.93;100.00
37368;BME280;23240;43.210;27.910;2022-07-29T05:17:27;101079.25;;;23.05;100.00
37368;BME280;23240;43.210;27.910;2022-07-29T05:19:53;101084.78;;;23.12;100.00
37368;BME280;23240;43.210;27.910;2022-07-29T05:22:18;101091.97;;;23.19;100.00
37368;BME280;23240;43.210;27.910;2022-07-29T05:24:44;101091.59;;;23.29;100.00
37368;BME280;23240;43.210;27.910;2022-07-29T05:27:09;101088.50;;;23.39;100.00
37368;BME280;23240;43.210;27.910;2022-07-29T05:29:35;101082.06;;;23.53;100.00
37368;BME280;23240;43.210;27.910;2022-07-29T05:32:00;101083.81;;;23.60;100.00
37368;BME280;23240;43.210;27.910;2022-07-29T05:34:25;101082.22;;;23.73;100.00
37368;BME280;23240;43.210;27.910;2022-07-29T05:36:51;101084.00;;;23.94;100.00
37368;BME280;23240;43.210;27.910;2022-07-29T05:39:16;101086.41;;;24.23;100.00
37368;BME280;23240;43.210;27.910;2022-07-29T05:41:42;101087.75;;;24.60;100.00
37368;BME280;23240;43.210;27.910;2022-07-29T05:44:07;101080.63;;;25.12;100.00
37368;BME280;23240;43.210;27.910;2022-07-29T05:46:32;101073.72;;;25.75;100.00
37368;BME280;23240;43.210;27.910;2022-07-29T05:48:58;101082.31;;;26.30;100.00
37368;BME280;23240;43.210;27.910;2022-07-29T05:51:23;101085.34;;;26.85;94.61
37368;BME280;23240;43.210;27.910;2022-07-29T05:53:49;101079.06;;;27.28;89.09
37368;BME280;23240;43.210;27.910;2022-07-29T05:56:14;101085.66;;;27.63;85.19
37368;BME280;23240;43.210;27.910;2022-07-29T05:58:39;101081.59;;;27.84;83.63
37368;BME280;23240;43.210;27.910;2022-07-29T06:01:05;101090.19;;;28.25;82.48
37368;BME280;23240;43.210;27.910;2022-07-29T06:03:30;101092.31;;;28.41;77.71
37368;BME280;23240;43.210;27.910;2022-07-29T06:05:55;101092.13;;;28.66;75.25
37368;BME280;23240;43.210;27.910;2022-07-29T06:08:21;101091.59;;;28.99;74.32
37368;BME280;23240;43.210;27.910;2022-07-29T06:10:46;101088.00;;;29.45;70.45
37368;BME280;23240;43.210;27.910;2022-07-29T06:13:12;101092.75;;;29.74;68.92
37368;BME280;23240;43.210;27.910;2022-07-29T06:15:37;101088.22;;;30.19;66.41
37368;BME280;23240;43.210;27.910;2022-07-29T06:18:03;101091.78;;;30.49;64.24
37368;BME280;23240;43.210;27.910;2022-07-29T06:20:28;101084.31;;;30.78;60.91
37368;BME280;23240;43.210;27.910;2022-07-29T06:22:55;101078.94;;;30.88;59.54
37368;BME280;23240;43.210;27.910;2022-07-29T06:25:20;101087.41;;;30.98;56.01
37368;BME280;23240;43.210;27.910;2022-07-29T06:27:45;101089.50;;;31.08;57.15
37368;BME280;23240;43.210;27.910;2022-07-29T06:30:11;101084.72;;;31.03;54.53
37368;BME280;23240;43.210;27.910;2022-07-29T06:32:36;101090.91;;;31.27;52.72
37368;BME280;23240;43.210;27.910;2022-07-29T06:35:02;101084.44;;;31.21;52.03
37368;BME280;23240;43.210;27.910;2022-07-29T06:37:27;101085.56;;;31.59;50.87
37368;BME280;23240;43.210;27.910;2022-07-29T06:39:52;101085.59;;;32.03;49.56
37368;BME280;23240;43.210;27.910;2022-07-29T06:42:41;101086.41;;;32.04;47.52
37368;BME280;23240;43.210;27.910;2022-07-29T06:45:07;101083.53;;;32.42;45.24
37368;BME280;23240;43.210;27.910;2022-07-29T06:47:32;101087.81;;;32.55;43.17
37368;BME280;23240;43.210;27.910;2022-07-29T06:49:57;101090.13;;;32.68;42.73
37368;BME280;23240;43.210;27.910;2022-07-29T06:52:23;101089.66;;;33.04;42.06
37368;BME280;23240;43.210;27.910;2022-07-29T06:54:50;101087.66;;;33.41;41.85
37368;BME280;23240;43.210;27.910;2022-07-29T06:57:15;101080.03;;;33.69;41.22
37368;BME280;23240;43.210;27.910;2022-07-29T06:59:41;101070.94;;;33.89;39.95
37368;BME280;23240;43.210;27.910;2022-07-29T07:02:06;101071.91;;;34.15;38.32
37368;BME280;23240;43.210;27.910;2022-07-29T07:04:31;101068.91;;;34.52;38.40
37368;BME280;23240;43.210;27.910;2022-07-29T07:06:57;101072.25;;;34.80;37.97
37368;BME280;23240;43.210;27.910;2022-07-29T07:09:22;101080.34;;;35.01;39.12
37368;BME280;23240;43.210;27.910;2022-07-29T07:11:48;101077.81;;;35.20;39.58
37368;BME280;23240;43.210;27.910;2022-07-29T07:14:13;101083.88;;;35.38;38.55
37368;BME280;23240;43.210;27.910;2022-07-29T07:16:38;101071.63;;;35.39;38.16
37368;BME280;23240;43.210;27.910;2022-07-29T07:19:04;101080.03;;;35.23;37.56
37368;BME280;23240;43.210;27.910;2022-07-29T07:21:29;101080.34;;;35.07;37.36
37368;BME280;23240;43.210;27.910;2022-07-29T07:23:54;101080.84;;;35.24;37.93
37368;BME280;23240;43.210;27.910;2022-07-29T07:26:20;101089.25;;;35.03;37.36
37368;BME280;23240;43.210;27.910;2022-07-29T07:28:45;101085.63;;;34.98;37.36
37368;BME280;23240;43.210;27.910;2022-07-29T07:31:11;101085.91;;;35.07;37.05
37368;BME280;23240;43.210;27.910;2022-07-29T07:33:36;101093.41;;;35.16;36.58
37368;BME280;23240;43.210;27.910;2022-07-29T07:36:02;101087.88;;;35.06;36.23
37368;BME280;23240;43.210;27.910;2022-07-29T07:38:28;101091.16;;;35.18;35.06
37368;BME280;23240;43.210;27.910;2022-07-29T07:40:53;101091.19;;;35.08;36.15
37368;BME280;23240;43.210;27.910;2022-07-29T07:43:18;101100.06;;;35.31;35.44
37368;BME280;23240;43.210;27.910;2022-07-29T07:45:44;101097.78;;;35.43;34.81
37368;BME280;23240;43.210;27.910;2022-07-29T07:48:09;101098.06;;;35.57;35.14
37368;BME280;23240;43.210;27.910;2022-07-29T07:50:35;101100.56;;;35.58;35.49
37368;BME280;23240;43.210;27.910;2022-07-29T07:53:01;101101.97;;;35.56;35.02
37368;BME280;23240;43.210;27.910;2022-07-29T07:55:27;101096.38;;;35.66;34.39
37368;BME280;23240;43.210;27.910;2022-07-29T07:57:57;101089.94;;;35.70;34.69
37368;BME280;23240;43.210;27.910;2022-07-29T08:00:22;101096.44;;;35.35;35.29
37368;BME280;23240;43.210;27.910;2022-07-29T08:02:48;101100.03;;;35.41;35.15
37368;BME280;23240;43.210;27.910;2022-07-29T08:05:14;101093.38;;;35.37;35.17
37368;BME280;23240;43.210;27.910;2022-07-29T08:07:42;101090.00;;;35.55;34.70
37368;BME280;23240;43.210;27.910;2022-07-29T08:10:08;101084.88;;;35.77;34.70
37368;BME280;23240;43.210;27.910;2022-07-29T08:12:34;101094.34;;;35.82;34.42
37368;BME280;23240;43.210;27.910;2022-07-29T08:14:59;101086.50;;;35.99;34.54
37368;BME280;23240;43.210;27.910;2022-07-29T08:17:24;101089.75;;;36.11;33.28
37368;BME280;23240;43.210;27.910;2022-07-29T08:19:51;101094.84;;;35.99;33.65
37368;BME280;23240;43.210;27.910;2022-07-29T08:22:16;101088.63;;;35.37;34.21
37368;BME280;23240;43.210;27.910;2022-07-29T08:24:42;101091.19;;;35.08;34.25
37368;BME280;23240;43.210;27.910;2022-07-29T08:27:20;101087.00;;;34.85;33.96
37368;BME280;23240;43.210;27.910;2022-07-29T08:29:46;101091.19;;;34.88;34.86
37368;BME280;23240;43.210;27.910;2022-07-29T08:32:11;101085.88;;;34.81;34.94
37368;BME280;23240;43.210;27.910;2022-07-29T08:34:36;101092.84;;;34.94;33.54
37368;BME280;23240;43.210;27.910;2022-07-29T08:37:12;101088.72;;;34.96;33.10
37368;BME280;23240;43.210;27.910;2022-07-29T08:39:37;101092.03;;;34.58;32.63
37368;BME280;23240;43.210;27.910;2022-07-29T08:42:03;101091.84;;;33.96;34.05
37368;BME280;23240;43.210;27.910;2022-07-29T08:44:28;101085.13;;;33.92;33.95
37368;BME280;23240;43.210;27.910;2022-07-29T08:46:54;101083.75;;;33.90;34.49
37368;BME280;23240;43.210;27.910;2022-07-29T08:49:19;101078.25;;;33.95;34.26
37368;BME280;23240;43.210;27.910;2022-07-29T08:51:45;101080.78;;;34.22;34.14
37368;BME280;23240;43.210;27.910;2022-07-29T08:54:11;101077.78;;;34.44;32.18
37368;BME280;23240;43.210;27.910;2022-07-29T08:56:38;101077.19;;;34.32;33.48
37368;BME280;23240;43.210;27.910;2022-07-29T08:59:04;101071.09;;;34.35;32.29
37368;BME280;23240;43.210;27.910;2022-07-29T09:01:30;101076.06;;;34.22;33.75
37368;BME280;23240;43.210;27.910;2022-07-29T09:03:57;101072.22;;;34.39;33.34
37368;BME280;23240;43.210;27.910;2022-07-29T09:06:23;101067.25;;;34.56;34.08
37368;BME280;23240;43.210;27.910;2022-07-29T09:08:52;101071.16;;;34.65;34.21
37368;BME280;23240;43.210;27.910;2022-07-29T09:11:18;101065.53;;;34.30;35.48
37368;BME280;23240;43.210;27.910;2022-07-29T09:13:44;101067.41;;;34.09;35.53
37368;BME280;23240;43.210;27.910;2022-07-29T09:16:09;101061.78;;;33.88;35.67
37368;BME280;23240;43.210;27.910;2022-07-29T09:18:44;101077.00;;;33.70;35.79
37368;BME280;23240;43.210;27.910;2022-07-29T09:21:11;101068.88;;;33.11;36.31
37368;BME280;23240;43.210;27.910;2022-07-29T09:24:03;101066.19;;;32.57;38.82
37368;BME280;23240;43.210;27.910;2022-07-29T09:26:29;101064.06;;;32.37;38.64
37368;BME280;23240;43.210;27.910;2022-07-29T09:28:55;101064.22;;;32.26;39.92
37368;BME280;23240;43.210;27.910;2022-07-29T09:31:26;101059.41;;;32.43;40.38
37368;BME280;23240;43.210;27.910;2022-07-29T09:33:59;101061.53;;;32.36;40.36
37368;BME280;23240;43.210;27.910;2022-07-29T09:36:25;101062.47;;;32.19;40.83
37368;BME280;23240;43.210;27.910;2022-07-29T09:38:57;101050.91;;;31.79;42.18
37368;BME280;23240;43.210;27.910;2022-07-29T09:41:23;101065.34;;;31.59;43.43
37368;BME280;23240;43.210;27.910;2022-07-29T09:43:53;101066.13;;;31.54;45.60
37368;BME280;23240;43.210;27.910;2022-07-29T09:46:18;101062.47;;;31.32;47.31
37368;BME280;23240;43.210;27.910;2022-07-29T09:48:44;101066.22;;;30.87;50.93
37368;BME280;23240;43.210;27.910;2022-07-29T09:51:19;101066.13;;;30.36;55.77
37368;BME280;23240;43.210;27.910;2022-07-29T09:53:44;101063.13;;;30.09;58.56
37368;BME280;23240;43.210;27.910;2022-07-29T09:56:09;101065.41;;;30.12;55.94
37368;BME280;23240;43.210;27.910;2022-07-29T09:58:35;101074.75;;;30.11;56.84
37368;BME280;23240;43.210;27.910;2022-07-29T10:01:01;101064.69;;;30.05;56.29
37368;BME280;23240;43.210;27.910;2022-07-29T10:03:26;101068.84;;;29.91;55.18
37368;BME280;23240;43.210;27.910;2022-07-29T10:06:10;101068.84;;;29.91;57.13
37368;BME280;23240;43.210;27.910;2022-07-29T10:08:36;101063.88;;;30.05;54.91
37368;BME280;23240;43.210;27.910;2022-07-29T10:11:08;101070.19;;;29.88;56.75
37368;BME280;23240;43.210;27.910;2022-07-29T10:13:34;101059.78;;;29.79;55.48
37368;BME280;23240;43.210;27.910;2022-07-29T10:15:59;101060.44;;;29.86;57.07
37368;BME280;23240;43.210;27.910;2022-07-29T10:18:25;101065.81;;;29.92;53.59
37368;BME280;23240;43.210;27.910;2022-07-29T10:20:50;101073.38;;;29.57;54.90
37368;BME280;23240;43.210;27.910;2022-07-29T10:23:16;101066.78;;;29.46;57.11
37368;BME280;23240;43.210;27.910;2022-07-29T10:25:41;101065.56;;;29.42;60.02
37368;BME280;23240;43.210;27.910;2022-07-29T10:28:07;101077.06;;;29.62;59.31
37368;BME280;23240;43.210;27.910;2022-07-29T10:30:32;101073.44;;;29.74;60.53
37368;BME280;23240;43.210;27.910;2022-07-29T10:33:17;101064.81;;;29.70;59.74
37368;BME280;23240;43.210;27.910;2022-07-29T10:40:55;101064.25;;;29.33;60.14
37368;BME280;23240;43.210;27.910;2022-07-29T10:43:43;101054.91;;;29.22;60.66
37368;BME280;23240;43.210;27.910;2022-07-29T10:46:09;101065.34;;;29.32;58.22
37368;BME280;23240;43.210;27.910;2022-07-29T10:48:37;101067.25;;;29.43;56.88
37368;BME280;23240;43.210;27.910;2022-07-29T10:51:21;101060.50;;;29.62;54.97
37368;BME280;23240;43.210;27.910;2022-07-29T10:56:29;101063.91;;;29.93;52.88
37368;BME280;23240;43.210;27.910;2022-07-29T11:01:56;101063.22;;;29.86;53.65
37368;BME280;23240;43.210;27.910;2022-07-29T11:09:31;101050.50;;;29.73;51.82
37368;BME280;23240;43.210;27.910;2022-07-29T11:11:57;101059.06;;;29.72;53.77
37368;BME280;23240;43.210;27.910;2022-07-29T11:17:11;101068.31;;;29.65;55.63
37368;BME280;23240;43.210;27.910;2022-07-29T11:19:36;101059.31;;;29.58;55.33
37368;BME280;23240;43.210;27.910;2022-07-29T11:22:07;101057.28;;;29.65;55.80
37368;BME280;23240;43.210;27.910;2022-07-29T11:24:33;101054.53;;;29.42;55.91
37368;BME280;23240;43.210;27.910;2022-07-29T11:27:18;101044.47;;;29.36;59.14
37368;BME280;23240;43.210;27.910;2022-07-29T11:29:54;101050.69;;;29.43;58.40
37368;BME280;23240;43.210;27.910;2022-07-29T11:32:21;101043.59;;;29.47;59.08
37368;BME280;23240;43.210;27.910;2022-07-29T11:34:47;101048.66;;;29.50;59.06
37368;BME280;23240;43.210;27.910;2022-07-29T11:39:49;101047.13;;;29.19;57.47
37368;BME280;23240;43.210;27.910;2022-07-29T11:45:06;101043.75;;;29.29;59.08
37368;BME280;23240;43.210;27.910;2022-07-29T11:47:33;101046.03;;;29.32;59.45
37368;BME280;23240;43.210;27.910;2022-07-29T11:49:59;101035.34;;;29.24;62.47
37368;BME280;23240;43.210;27.910;2022-07-29T11:52:58;101044.00;;;29.15;59.64
37368;BME280;23240;43.210;27.910;2022-07-29T11:55:17;101023.84;;;28.80;63.19
37368;BME280;23240;43.210;27.910;2022-07-29T11:57:50;101033.66;;;28.76;67.29
37368;BME280;23240;43.210;27.910;2022-07-29T12:00:22;101032.72;;;28.82;64.91
37368;BME280;23240;43.210;27.910;2022-07-29T12:02:47;101025.03;;;28.84;65.27
37368;BME280;23240;43.210;27.910;2022-07-29T12:05:12;101029.00;;;28.88;66.54
37368;BME280;23240;43.210;27.910;2022-07-29T12:07:39;101022.41;;;28.89;64.45
37368;BME280;23240;43.210;27.910;2022-07-29T12:10:04;101024.09;;;28.78;63.67
37368;BME280;23240;43.210;27.910;2022-07-29T12:12:30;101017.94;;;28.76;63.70
37368;BME280;23240;43.210;27.910;2022-07-29T12:14:55;101013.41;;;28.93;64.88
37368;BME280;23240;43.210;27.910;2022-07-29T12:17:27;101010.44;;;29.07;64.40
37368;BME280;23240;43.210;27.910;2022-07-29T12:19:54;101017.25;;;29.04;65.74
37368;BME280;23240;43.210;27.910;2022-07-29T12:22:30;101018.72;;;29.07;66.64
37368;BME280;23240;43.210;27.910;2022-07-29T12:25:00;101019.53;;;28.84;62.03
37368;BME280;23240;43.210;27.910;2022-07-29T12:27:26;101014.59;;;28.74;67.29
37368;BME280;23240;43.210;27.910;2022-07-29T12:29:58;101005.84;;;28.65;67.42
37368;BME280;23240;43.210;27.910;2022-07-29T12:35:23;101002.25;;;28.77;70.85
37368;BME280;23240;43.210;27.910;2022-07-29T12:37:48;101003.56;;;28.86;70.87
37368;BME280;23240;43.210;27.910;2022-07-29T12:40:16;101004.56;;;28.91;70.94
37368;BME280;23240;43.210;27.910;2022-07-29T12:45:29;100988.38;;;28.95;69.84
37368;BME280;23240;43.210;27.910;2022-07-29T12:47:55;100993.16;;;28.88;71.30
37368;BME280;23240;43.210;27.910;2022-07-29T12:50:21;100986.44;;;28.84;72.21
37368;BME280;23240;43.210;27.910;2022-07-29T12:52:46;100992.91;;;28.78;74.60
37368;BME280;23240;43.210;27.910;2022-07-29T12:55:12;100988.84;;;28.68;74.11
37368;BME280;23240;43.210;27.910;2022-07-29T12:57:44;100983.78;;;28.65;75.40
37368;BME280;23240;43.210;27.910;2022-07-29T13:00:11;100979.94;;;28.66;71.48
37368;BME280;23240;43.210;27.910;2022-07-29T13:02:38;100975.06;;;28.68;73.17
37368;BME280;23240;43.210;27.910;2022-07-29T13:05:04;100975.75;;;28.76;74.94
37368;BME280;23240;43.210;27.910;2022-07-29T13:07:30;100977.09;;;28.85;74.71
37368;BME280;23240;43.210;27.910;2022-07-29T13:10:14;100971.09;;;28.88;69.82
37368;BME280;23240;43.210;27.910;2022-07-29T13:13:00;100980.44;;;28.75;70.85
37368;BME280;23240;43.210;27.910;2022-07-29T13:15:25;100984.75;;;28.59;73.00
37368;BME280;23240;43.210;27.910;2022-07-29T13:17:50;100988.22;;;28.55;77.97
37368;BME280;23240;43.210;27.910;2022-07-29T13:20:15;100983.44;;;28.50;80.05